Time;durP1;ratioP1;P1;durP2;ratioP2;P2;SDS_P1;SDS_P2;PMS_P1;PMS_P2;Temp;Humidity;BMP_temperature;BMP_pressure;BME280_temperature;BME280_humidity;BME280_pressure;Samples;Min_cycle;Max_cycle;Signal;HPM_P1;HPM_P2
2022/08/24 19:10:59;;;;;;;15.88;12.00;;;24.40;99.90;;;;;;4962733;27;20465;-63
2022/08/24 19:13:25;;;;;;;16.33;12.82;;;24.20;99.90;;;;;;4937633;28;20058;-65
2022/08/24 19:15:51;;;;;;;16.08;13.77;;;24.20;99.90;;;;;;4985219;28;20033;-63
2022/08/24 19:18:20;;;;;;;19.35;14.02;;;24.10;99.90;;;;;;5032491;28;20053;-64
2022/08/24 19:20:48;;;;;;;16.58;14.35;;;24.10;99.90;;;;;;5042136;28;20052;-64
2022/08/24 19:23:31;;;;;;;17.63;14.27;;;24.20;99.90;;;;;;5026460;28;20029;-64
2022/08/24 19:25:57;;;;;;;19.25;14.35;;;24.10;99.90;;;;;;5023262;28;20049;-63
2022/08/24 19:28:23;;;;;;;18.45;13.82;;;24.00;99.90;;;;;;5019734;28;20398;-63
2022/08/24 19:30:54;;;;;;;14.30;12.65;;;23.80;99.90;;;;;;5022847;28;20044;-63
2022/08/24 19:33:24;;;;;;;15.00;13.38;;;24.00;99.90;;;;;;5023063;28;20045;-63
2022/08/24 19:35:51;;;;;;;13.95;11.88;;;23.90;99.90;;;;;;5023570;28;20047;-63
2022/08/24 19:38:16;;;;;;;13.38;10.65;;;23.70;99.90;;;;;;5006916;28;20030;-63
2022/08/24 19:40:42;;;;;;;18.45;10.98;;;23.70;99.90;;;;;;5022181;28;20049;-63
2022/08/24 19:43:08;;;;;;;11.77;10.57;;;23.70;99.90;;;;;;5025943;28;20037;-63
2022/08/24 19:48:21;;;;;;;11.00;8.40;;;23.80;99.90;;;;;;5025630;28;20100;-63
2022/08/24 19:50:46;;;;;;;13.02;9.00;;;23.70;99.90;;;;;;5025995;28;20041;-63
2022/08/24 19:53:12;;;;;;;11.90;8.77;;;23.60;99.90;;;;;;5024876;28;20121;-63
2022/08/24 19:55:38;;;;;;;9.85;8.85;;;23.60;99.90;;;;;;5026407;28;20158;-63
2022/08/24 19:58:26;;;;;;;10.77;8.32;;;23.80;99.90;;;;;;5023716;28;20036;-63
2022/08/24 20:01:04;;;;;;;9.73;8.02;;;23.70;99.90;;;;;;5027554;28;20132;-63
2022/08/24 20:03:30;;;;;;;11.60;8.25;;;23.70;99.90;;;;;;5026527;28;20064;-63
2022/08/24 20:05:55;;;;;;;8.43;7.65;;;23.60;99.90;;;;;;5016208;28;20117;-63
2022/08/24 20:08:21;;;;;;;9.98;8.38;;;23.70;99.90;;;;;;5006969;28;20072;-63
2022/08/24 20:10:48;;;;;;;14.13;8.20;;;23.60;99.90;;;;;;5029773;28;20053;-63
2022/08/24 20:13:14;;;;;;;11.95;8.35;;;23.70;99.90;;;;;;5025173;28;20456;-63
2022/08/24 20:15:40;;;;;;;11.40;8.52;;;23.50;99.90;;;;;;5021144;28;20115;-63
2022/08/24 20:18:06;;;;;;;11.07;9.18;;;23.60;99.90;;;;;;5013768;28;20045;-63
2022/08/24 20:20:32;;;;;;;14.57;9.90;;;23.50;99.90;;;;;;5022055;28;20042;-63
2022/08/24 20:23:04;;;;;;;10.63;9.48;;;23.50;99.90;;;;;;5004711;28;20510;-63
2022/08/24 20:25:32;;;;;;;13.27;9.18;;;23.40;99.90;;;;;;4999791;28;20046;-63
2022/08/24 20:28:00;;;;;;;10.50;9.35;;;23.30;99.90;;;;;;5005053;28;20041;-63
2022/08/24 20:30:26;;;;;;;12.07;9.77;;;23.30;99.90;;;;;;5008615;28;20042;-63
2022/08/24 20:32:52;;;;;;;13.25;10.10;;;23.30;99.90;;;;;;5011162;28;20463;-63
2022/08/24 20:35:18;;;;;;;12.68;10.57;;;23.00;99.90;;;;;;4998360;28;20484;-63
2022/08/24 20:37:44;;;;;;;13.77;10.45;;;23.00;99.90;;;;;;5009109;28;20030;-63
2022/08/24 20:40:14;;;;;;;13.43;10.30;;;22.90;99.90;;;;;;5011603;28;20041;-63
2022/08/24 20:42:40;;;;;;;11.50;10.30;;;22.90;99.90;;;;;;5010692;28;20045;-63
2022/08/24 20:45:10;;;;;;;13.27;10.35;;;23.00;99.90;;;;;;5010533;28;20073;-63
2022/08/24 20:47:50;;;;;;;12.77;11.15;;;22.80;99.90;;;;;;5005534;28;20061;-63
2022/08/24 20:50:22;;;;;;;12.48;10.90;;;22.80;99.90;;;;;;5010064;28;20052;-63
2022/08/24 20:52:48;;;;;;;15.82;11.38;;;22.80;99.90;;;;;;5006209;28;20125;-63
2022/08/24 20:55:14;;;;;;;11.55;10.38;;;22.80;99.90;;;;;;5001685;28;20042;-63
2022/08/24 20:57:47;;;;;;;12.45;11.15;;;22.80;99.90;;;;;;4997083;28;20092;-65
2022/08/24 21:00:14;;;;;;;11.02;9.85;;;22.70;99.90;;;;;;5006110;28;20111;-63
2022/08/24 21:02:40;;;;;;;15.70;11.95;;;22.80;99.90;;;;;;5012985;28;20087;-63
2022/08/24 21:05:06;;;;;;;18.27;11.40;;;22.70;99.90;;;;;;5012133;28;20045;-63
2022/08/24 21:07:32;;;;;;;12.65;11.43;;;22.70;99.90;;;;;;5007140;28;20400;-63
2022/08/24 21:09:57;;;;;;;15.35;11.70;;;22.50;99.90;;;;;;5009257;28;20062;-63
2022/08/24 21:12:23;;;;;;;18.13;12.77;;;22.70;99.90;;;;;;5007351;28;20042;-63
2022/08/24 21:14:50;;;;;;;14.93;13.10;;;22.70;99.90;;;;;;4997992;28;20049;-63
2022/08/24 21:17:16;;;;;;;19.90;12.23;;;22.60;99.90;;;;;;4992366;28;20491;-63
2022/08/24 21:19:41;;;;;;;14.70;13.10;;;22.70;99.90;;;;;;5011580;28;20097;-63
2022/08/24 21:22:07;;;;;;;14.27;12.85;;;22.70;99.90;;;;;;5013320;28;20137;-63
2022/08/24 21:24:33;;;;;;;15.35;12.30;;;22.70;99.90;;;;;;5012635;28;20045;-63
2022/08/24 21:26:59;;;;;;;14.75;13.30;;;22.70;99.90;;;;;;5013082;28;20034;-63
2022/08/24 21:29:25;;;;;;;15.88;13.23;;;22.60;99.90;;;;;;5013289;28;20042;-63
2022/08/24 21:34:41;;;;;;;19.48;14.80;;;22.50;99.90;;;;;;5012842;28;20096;-63
2022/08/24 21:37:13;;;;;;;21.15;14.30;;;22.40;99.90;;;;;;5013098;28;20077;-63
2022/08/24 21:39:39;;;;;;;17.83;14.68;;;22.40;99.90;;;;;;5009870;28;20060;-63
2022/08/24 21:42:06;;;;;;;20.50;16.05;;;22.50;99.90;;;;;;5013140;28;20441;-63
2022/08/24 21:44:32;;;;;;;17.45;15.55;;;22.40;99.90;;;;;;5012991;28;20042;-63
2022/08/24 21:46:58;;;;;;;18.73;15.77;;;22.40;99.90;;;;;;5012993;28;20495;-63
2022/08/24 21:49:24;;;;;;;18.75;16.30;;;22.20;99.90;;;;;;5012242;28;20096;-63
2022/08/24 21:51:50;;;;;;;17.80;15.07;;;22.30;99.90;;;;;;5011385;28;20026;-63
2022/08/24 21:54:15;;;;;;;18.58;16.45;;;22.30;99.90;;;;;;5012147;28;20053;-63
2022/08/24 21:56:41;;;;;;;21.50;15.82;;;22.20;99.90;;;;;;5012635;28;20038;-63
2022/08/24 21:59:07;;;;;;;18.33;15.65;;;22.40;99.90;;;;;;5012112;28;20073;-63
2022/08/24 22:01:32;;;;;;;18.65;16.13;;;22.10;99.90;;;;;;5011949;28;20041;-63
2022/08/24 22:03:58;;;;;;;20.92;15.57;;;22.20;99.90;;;;;;5012556;28;20537;-63
2022/08/24 22:06:24;;;;;;;19.27;15.27;;;22.20;99.90;;;;;;5012543;28;20113;-64
2022/08/24 22:08:51;;;;;;;17.58;15.25;;;22.10;99.90;;;;;;5006223;28;20124;-64
2022/08/24 22:11:19;;;;;;;28.15;17.38;;;22.20;99.90;;;;;;5011250;28;20061;-63
2022/08/24 22:13:46;;;;;;;23.27;17.45;;;22.30;99.90;;;;;;5012730;28;20285;-63
2022/08/24 22:16:12;;;;;;;18.95;16.30;;;22.30;99.90;;;;;;5012311;28;20033;-63
2022/08/24 22:18:38;;;;;;;20.13;16.50;;;22.40;99.90;;;;;;5011453;28;20034;-63
2022/08/24 22:21:14;;;;;;;22.45;16.63;;;22.20;99.90;;;;;;5011900;28;20037;-63
2022/08/24 22:23:39;;;;;;;23.30;17.90;;;22.40;99.90;;;;;;5004520;28;20506;-63
2022/08/24 22:26:05;;;;;;;27.35;17.52;;;22.30;99.90;;;;;;5015612;28;20116;-63
2022/08/24 22:28:33;;;;;;;24.30;17.50;;;22.40;99.90;;;;;;5004110;28;20590;-63
2022/08/24 22:30:59;;;;;;;19.77;17.08;;;22.40;99.90;;;;;;5007758;28;20125;-63
2022/08/24 22:33:24;;;;;;;21.15;18.80;;;22.30;99.90;;;;;;5011955;28;20121;-64
2022/08/24 22:35:52;;;;;;;21.13;18.20;;;22.30;99.90;;;;;;5011797;28;20077;-63
2022/08/24 22:38:19;;;;;;;22.77;18.05;;;22.30;99.90;;;;;;5009778;28;20480;-63
2022/08/24 22:40:45;;;;;;;20.13;17.95;;;22.40;99.90;;;;;;5011910;28;20038;-63
2022/08/24 22:43:11;;;;;;;22.75;18.30;;;22.40;99.90;;;;;;5011227;28;20042;-63
2022/08/24 22:45:36;;;;;;;20.95;18.55;;;22.10;99.90;;;;;;5011769;28;20034;-63
2022/08/24 22:48:03;;;;;;;21.23;18.77;;;22.40;99.90;;;;;;5010724;28;20113;-63
2022/08/24 22:50:31;;;;;;;22.55;20.13;;;22.40;99.90;;;;;;5010637;28;20121;-63
2022/08/24 22:52:57;;;;;;;25.75;20.02;;;22.40;99.90;;;;;;5011867;28;20462;-63
2022/08/24 22:55:23;;;;;;;27.88;21.92;;;22.30;99.90;;;;;;5008767;28;20037;-63
2022/08/24 22:57:48;;;;;;;25.65;20.88;;;22.40;99.90;;;;;;5011817;28;20038;-63
2022/08/24 23:00:14;;;;;;;28.27;22.63;;;22.20;99.90;;;;;;5010979;28;20065;-63
2022/08/24 23:02:40;;;;;;;27.50;22.48;;;22.40;99.90;;;;;;5006867;28;20555;-63
2022/08/24 23:05:07;;;;;;;27.23;24.35;;;22.20;99.90;;;;;;4992055;28;20038;-63
2022/08/24 23:07:34;;;;;;;27.80;24.63;;;22.30;99.90;;;;;;5004793;28;20103;-63
2022/08/24 23:10:00;;;;;;;32.03;25.90;;;22.30;99.90;;;;;;5010740;28;20073;-63
2022/08/24 23:12:27;;;;;;;27.67;24.75;;;22.20;99.90;;;;;;5004006;28;20038;-63
2022/08/24 23:14:53;;;;;;;30.15;25.60;;;22.40;99.90;;;;;;4992152;28;20117;-63
2022/08/24 23:17:20;;;;;;;33.15;25.67;;;22.20;99.90;;;;;;4996360;28;20030;-63
2022/08/24 23:19:59;;;;;;;28.95;25.90;;;22.50;99.90;;;;;;5010750;28;20403;-63
2022/08/24 23:22:27;;;;;;;29.05;25.95;;;22.50;99.90;;;;;;5009866;28;20042;-63
2022/08/24 23:24:52;;;;;;;32.50;28.70;;;22.30;99.90;;;;;;5010785;28;20326;-63
2022/08/24 23:27:19;;;;;;;31.30;27.98;;;22.20;99.90;;;;;;5010562;28;20128;-63
2022/08/24 23:29:45;;;;;;;33.33;28.60;;;22.40;99.90;;;;;;5010437;28;20046;-63
2022/08/24 23:32:11;;;;;;;31.63;28.08;;;22.30;99.90;;;;;;5009737;28;20053;-63
2022/08/24 23:34:37;;;;;;;31.80;28.40;;;22.30;99.90;;;;;;5010605;28;20038;-63
2022/08/24 23:37:03;;;;;;;31.20;27.40;;;22.20;99.90;;;;;;5011012;28;20045;-63
2022/08/24 23:39:29;;;;;;;30.17;26.88;;;22.50;99.90;;;;;;5010738;28;20530;-63
2022/08/24 23:41:55;;;;;;;35.55;28.83;;;22.50;99.90;;;;;;5010033;28;20042;-63
2022/08/24 23:44:24;;;;;;;35.97;28.65;;;22.50;99.90;;;;;;5010444;28;20038;-63
2022/08/24 23:46:50;;;;;;;31.88;27.98;;;22.20;99.90;;;;;;5009472;28;20048;-63
2022/08/24 23:49:18;;;;;;;34.17;28.70;;;22.30;99.90;;;;;;4995467;28;20499;-63
2022/08/24 23:51:44;;;;;;;36.78;29.33;;;22.40;99.90;;;;;;5009205;28;20511;-63
2022/08/24 23:54:11;;;;;;;31.52;28.27;;;22.40;99.90;;;;;;5009248;28;20129;-63
2022/08/24 23:56:43;;;;;;;31.65;28.23;;;22.40;99.90;;;;;;5019500;28;20112;-63
2022/08/24 23:59:12;;;;;;;36.35;28.80;;;22.20;99.90;;;;;;5013073;28;20045;-63
